sensor_id;sensor_type;location;lat;lon;timestamp;temperature;humidity
2124;DHT22;1068;52.460;13.528;2022-09-06T00:02:04;16.50;99.90
2124;DHT22;1068;52.460;13.528;2022-09-06T00:04:30;16.40;99.90
2124;DHT22;1068;52.460;13.528;2022-09-06T00:06:57;16.50;99.90
2124;DHT22;1068;52.460;13.528;2022-09-06T00:09:23;16.30;99.90
2124;DHT22;1068;52.460;13.528;2022-09-06T00:11:50;16.30;99.90
2124;DHT22;1068;52.460;13.528;2022-09-06T00:14:18;16.40;99.90
2124;DHT22;1068;52.460;13.528;2022-09-06T00:16:44;16.40;99.90
2124;DHT22;1068;52.460;13.528;2022-09-06T00:19:11;16.30;99.90
2124;DHT22;1068;52.460;13.528;2022-09-06T00:21:37;16.40;99.90
2124;DHT22;1068;52.460;13.528;2022-09-06T00:24:04;16.30;99.90
2124;DHT22;1068;52.460;13.528;2022-09-06T00:26:31;16.40;99.90
2124;DHT22;1068;52.460;13.528;2022-09-06T00:28:57;16.40;99.90
2124;DHT22;1068;52.460;13.528;2022-09-06T00:31:26;16.30;99.90
2124;DHT22;1068;52.460;13.528;2022-09-06T00:33:53;16.20;99.90
2124;DHT22;1068;52.460;13.528;2022-09-06T00:36:20;16.30;99.90
2124;DHT22;1068;52.460;13.528;2022-09-06T00:38:47;16.30;99.90
2124;DHT22;1068;52.460;13.528;2022-09-06T00:41:14;16.20;99.90
2124;DHT22;1068;52.460;13.528;2022-09-06T00:43:41;16.20;99.90
2124;DHT22;1068;52.460;13.528;2022-09-06T00:46:12;16.20;99.90
2124;DHT22;1068;52.460;13.528;2022-09-06T00:48:42;16.20;99.90
2124;DHT22;1068;52.460;13.528;2022-09-06T00:51:11;16.30;99.90
2124;DHT22;1068;52.460;13.528;2022-09-06T00:53:38;16.20;99.90
2124;DHT22;1068;52.460;13.528;2022-09-06T00:56:05;16.10;99.90
2124;DHT22;1068;52.460;13.528;2022-09-06T00:58:31;16.00;99.90
2124;DHT22;1068;52.460;13.528;2022-09-06T01:00:58;16.00;99.90
2124;DHT22;1068;52.460;13.528;2022-09-06T01:03:25;16.00;99.90
2124;DHT22;1068;52.460;13.528;2022-09-06T01:05:59;15.90;99.90
2124;DHT22;1068;52.460;13.528;2022-09-06T01:08:36;15.90;99.90
2124;DHT22;1068;52.460;13.528;2022-09-06T01:11:22;15.90;99.90
2124;DHT22;1068;52.460;13.528;2022-09-06T01:14:01;15.90;99.90
2124;DHT22;1068;52.460;13.528;2022-09-06T01:16:35;15.90;99.90
2124;DHT22;1068;52.460;13.528;2022-09-06T01:19:26;15.80;99.90
2124;DHT22;1068;52.460;13.528;2022-09-06T01:22:06;15.80;99.90
2124;DHT22;1068;52.460;13.528;2022-09-06T01:24:51;15.70;99.90
2124;DHT22;1068;52.460;13.528;2022-09-06T01:27:40;15.70;99.90
2124;DHT22;1068;52.460;13.528;2022-09-06T01:30:13;15.60;99.90
2124;DHT22;1068;52.460;13.528;2022-09-06T01:32:50;15.60;99.90
2124;DHT22;1068;52.460;13.528;2022-09-06T01:35:26;15.50;99.90
2124;DHT22;1068;52.460;13.528;2022-09-06T01:37:55;15.60;99.90
2124;DHT22;1068;52.460;13.528;2022-09-06T01:40:22;15.50;99.90
2124;DHT22;1068;52.460;13.528;2022-09-06T01:42:50;15.50;99.90
2124;DHT22;1068;52.460;13.528;2022-09-06T01:45:19;15.50;99.90
2124;DHT22;1068;52.460;13.528;2022-09-06T01:47:53;15.50;99.90
2124;DHT22;1068;52.460;13.528;2022-09-06T01:50:49;15.60;99.90
2124;DHT22;1068;52.460;13.528;2022-09-06T01:53:34;15.50;99.90
2124;DHT22;1068;52.460;13.528;2022-09-06T01:56:08;15.70;99.90
2124;DHT22;1068;52.460;13.528;2022-09-06T01:58:51;15.50;99.90
2124;DHT22;1068;52.460;13.528;2022-09-06T02:01:21;15.30;99.90
2124;DHT22;1068;52.460;13.528;2022-09-06T02:03:56;15.30;99.90
2124;DHT22;1068;52.460;13.528;2022-09-06T02:06:27;15.30;99.90
2124;DHT22;1068;52.460;13.528;2022-09-06T02:08:59;15.10;99.90
2124;DHT22;1068;52.460;13.528;2022-09-06T02:11:28;15.20;99.90
2124;DHT22;1068;52.460;13.528;2022-09-06T02:14:01;15.20;99.90
2124;DHT22;1068;52.460;13.528;2022-09-06T02:16:29;15.10;99.90
2124;DHT22;1068;52.460;13.528;2022-09-06T02:19:01;15.00;99.90
2124;DHT22;1068;52.460;13.528;2022-09-06T02:21:30;15.00;99.90
2124;DHT22;1068;52.460;13.528;2022-09-06T02:24:02;15.10;99.90
2124;DHT22;1068;52.460;13.528;2022-09-06T02:26:33;15.10;99.90
2124;DHT22;1068;52.460;13.528;2022-09-06T02:29:02;15.10;99.90
2124;DHT22;1068;52.460;13.528;2022-09-06T02:31:30;15.10;99.90
2124;DHT22;1068;52.460;13.528;2022-09-06T02:33:59;14.90;99.90
2124;DHT22;1068;52.460;13.528;2022-09-06T02:36:26;14.90;99.90
2124;DHT22;1068;52.460;13.528;2022-09-06T02:38:53;15.00;99.90
2124;DHT22;1068;52.460;13.528;2022-09-06T02:41:21;14.70;99.90
2124;DHT22;1068;52.460;13.528;2022-09-06T02:43:49;14.70;99.90
2124;DHT22;1068;52.460;13.528;2022-09-06T02:46:17;14.90;99.90
2124;DHT22;1068;52.460;13.528;2022-09-06T02:48:43;14.90;99.90
2124;DHT22;1068;52.460;13.528;2022-09-06T02:51:11;14.80;99.90
2124;DHT22;1068;52.460;13.528;2022-09-06T02:53:37;14.70;99.90
2124;DHT22;1068;52.460;13.528;2022-09-06T02:56:04;14.70;99.90
2124;DHT22;1068;52.460;13.528;2022-09-06T02:58:31;14.60;99.90
2124;DHT22;1068;52.460;13.528;2022-09-06T03:00:57;14.60;99.90
2124;DHT22;1068;52.460;13.528;2022-09-06T03:03:25;14.60;99.90
2124;DHT22;1068;52.460;13.528;2022-09-06T03:05:53;14.50;99.90
2124;DHT22;1068;52.460;13.528;2022-09-06T03:08:21;14.60;99.90
2124;DHT22;1068;52.460;13.528;2022-09-06T03:10:50;14.50;99.90
2124;DHT22;1068;52.460;13.528;2022-09-06T03:13:17;14.50;99.90
2124;DHT22;1068;52.460;13.528;2022-09-06T03:15:44;14.60;99.90
2124;DHT22;1068;52.460;13.528;2022-09-06T03:18:11;14.70;99.90
2124;DHT22;1068;52.460;13.528;2022-09-06T03:20:40;14.60;99.90
2124;DHT22;1068;52.460;13.528;2022-09-06T03:23:06;14.50;99.90
2124;DHT22;1068;52.460;13.528;2022-09-06T03:25:33;14.40;99.90
2124;DHT22;1068;52.460;13.528;2022-09-06T03:28:01;14.50;99.90
2124;DHT22;1068;52.460;13.528;2022-09-06T03:30:27;14.60;99.90
2124;DHT22;1068;52.460;13.528;2022-09-06T03:32:54;14.50;99.90
2124;DHT22;1068;52.460;13.528;2022-09-06T03:35:20;14.50;99.90
2124;DHT22;1068;52.460;13.528;2022-09-06T03:37:48;14.50;99.90
2124;DHT22;1068;52.460;13.528;2022-09-06T03:40:15;14.40;99.90
2124;DHT22;1068;52.460;13.528;2022-09-06T03:42:41;14.30;99.90
2124;DHT22;1068;52.460;13.528;2022-09-06T03:45:08;14.30;99.90
2124;DHT22;1068;52.460;13.528;2022-09-06T03:47:35;14.30;99.90
2124;DHT22;1068;52.460;13.528;2022-09-06T03:50:02;14.30;99.90
2124;DHT22;1068;52.460;13.528;2022-09-06T03:52:28;14.20;99.90
2124;DHT22;1068;52.460;13.528;2022-09-06T03:54:56;14.20;99.90
2124;DHT22;1068;52.460;13.528;2022-09-06T03:57:22;14.20;99.90
2124;DHT22;1068;52.460;13.528;2022-09-06T03:59:49;14.30;99.90
2124;DHT22;1068;52.460;13.528;2022-09-06T04:02:16;14.20;99.90
2124;DHT22;1068;52.460;13.528;2022-09-06T04:04:42;14.20;99.90
2124;DHT22;1068;52.460;13.528;2022-09-06T04:07:09;14.00;99.90
2124;DHT22;1068;52.460;13.528;2022-09-06T04:09:36;14.00;99.90
2124;DHT22;1068;52.460;13.528;2022-09-06T04:12:04;14.00;99.90
2124;DHT22;1068;52.460;13.528;2022-09-06T04:14:30;14.10;99.90
2124;DHT22;1068;52.460;13.528;2022-09-06T04:16:57;14.10;99.90
2124;DHT22;1068;52.460;13.528;2022-09-06T04:19:23;14.20;99.90
2124;DHT22;1068;52.460;13.528;2022-09-06T04:21:50;14.10;99.90
2124;DHT22;1068;52.460;13.528;2022-09-06T04:24:16;14.20;99.90
2124;DHT22;1068;52.460;13.528;2022-09-06T04:26:42;14.20;99.90
2124;DHT22;1068;52.460;13.528;2022-09-06T04:29:10;14.20;99.90
2124;DHT22;1068;52.460;13.528;2022-09-06T04:31:37;14.20;99.90
2124;DHT22;1068;52.460;13.528;2022-09-06T04:34:03;14.20;99.90
2124;DHT22;1068;52.460;13.528;2022-09-06T04:36:30;14.20;99.90
2124;DHT22;1068;52.460;13.528;2022-09-06T04:38:56;14.00;99.90
2124;DHT22;1068;52.460;13.528;2022-09-06T04:41:23;14.00;99.90
2124;DHT22;1068;52.460;13.528;2022-09-06T04:43:49;14.00;99.90
2124;DHT22;1068;52.460;13.528;2022-09-06T04:46:20;14.10;99.90
2124;DHT22;1068;52.460;13.528;2022-09-06T04:48:47;14.10;99.90
2124;DHT22;1068;52.460;13.528;2022-09-06T04:51:13;14.20;99.90
2124;DHT22;1068;52.460;13.528;2022-09-06T04:53:40;14.00;99.90
2124;DHT22;1068;52.460;13.528;2022-09-06T04:56:08;14.00;99.90
2124;DHT22;1068;52.460;13.528;2022-09-06T04:58:38;14.10;99.90
2124;DHT22;1068;52.460;13.528;2022-09-06T05:01:04;14.00;99.90
2124;DHT22;1068;52.460;13.528;2022-09-06T05:03:32;14.10;99.90
2124;DHT22;1068;52.460;13.528;2022-09-06T05:06:04;14.00;99.90
2124;DHT22;1068;52.460;13.528;2022-09-06T05:08:30;14.00;99.90
2124;DHT22;1068;52.460;13.528;2022-09-06T05:10:57;14.10;99.90
2124;DHT22;1068;52.460;13.528;2022-09-06T05:13:24;14.20;99.90
2124;DHT22;1068;52.460;13.528;2022-09-06T05:15:50;14.10;99.90
2124;DHT22;1068;52.460;13.528;2022-09-06T05:18:16;14.20;99.90
2124;DHT22;1068;52.460;13.528;2022-09-06T05:20:50;14.20;99.90
2124;DHT22;1068;52.460;13.528;2022-09-06T05:23:16;14.30;99.90
2124;DHT22;1068;52.460;13.528;2022-09-06T05:25:43;14.10;99.90
2124;DHT22;1068;52.460;13.528;2022-09-06T05:28:09;14.20;99.90
2124;DHT22;1068;52.460;13.528;2022-09-06T05:30:36;14.20;99.90
2124;DHT22;1068;52.460;13.528;2022-09-06T05:33:02;14.10;99.90
2124;DHT22;1068;52.460;13.528;2022-09-06T05:35:29;14.20;99.90
2124;DHT22;1068;52.460;13.528;2022-09-06T05:37:57;14.30;99.90
2124;DHT22;1068;52.460;13.528;2022-09-06T05:40:23;14.30;99.90
2124;DHT22;1068;52.460;13.528;2022-09-06T05:42:50;14.50;99.90
2124;DHT22;1068;52.460;13.528;2022-09-06T05:45:17;14.50;99.90
2124;DHT22;1068;52.460;13.528;2022-09-06T05:47:43;14.60;99.90
2124;DHT22;1068;52.460;13.528;2022-09-06T05:50:10;14.80;99.90
2124;DHT22;1068;52.460;13.528;2022-09-06T05:52:36;14.90;99.90
2124;DHT22;1068;52.460;13.528;2022-09-06T05:55:06;15.00;99.90
2124;DHT22;1068;52.460;13.528;2022-09-06T05:57:32;14.80;99.90
2124;DHT22;1068;52.460;13.528;2022-09-06T05:59:59;14.80;99.90
2124;DHT22;1068;52.460;13.528;2022-09-06T06:02:25;15.00;99.90
2124;DHT22;1068;52.460;13.528;2022-09-06T06:04:52;15.00;99.90
2124;DHT22;1068;52.460;13.528;2022-09-06T06:07:18;14.80;99.90
2124;DHT22;1068;52.460;13.528;2022-09-06T06:09:45;15.00;99.90
2124;DHT22;1068;52.460;13.528;2022-09-06T06:12:13;14.90;99.90
2124;DHT22;1068;52.460;13.528;2022-09-06T06:14:39;14.90;99.90
2124;DHT22;1068;52.460;13.528;2022-09-06T06:17:06;15.00;99.90
2124;DHT22;1068;52.460;13.528;2022-09-06T06:19:32;15.10;99.90
2124;DHT22;1068;52.460;13.528;2022-09-06T06:21:59;15.10;99.90
2124;DHT22;1068;52.460;13.528;2022-09-06T06:24:25;15.10;99.90
2124;DHT22;1068;52.460;13.528;2022-09-06T06:26:52;15.20;99.90
2124;DHT22;1068;52.460;13.528;2022-09-06T06:29:20;15.20;99.90
2124;DHT22;1068;52.460;13.528;2022-09-06T06:31:46;15.30;99.90
2124;DHT22;1068;52.460;13.528;2022-09-06T06:34:13;15.40;99.90
2124;DHT22;1068;52.460;13.528;2022-09-06T06:36:40;15.50;99.90
2124;DHT22;1068;52.460;13.528;2022-09-06T06:39:08;15.60;99.90
2124;DHT22;1068;52.460;13.528;2022-09-06T06:41:35;15.70;99.90
2124;DHT22;1068;52.460;13.528;2022-09-06T06:44:03;15.80;99.90
2124;DHT22;1068;52.460;13.528;2022-09-06T06:46:32;15.70;99.90
2124;DHT22;1068;52.460;13.528;2022-09-06T06:48:59;15.80;99.90
2124;DHT22;1068;52.460;13.528;2022-09-06T06:51:27;15.90;99.90
2124;DHT22;1068;52.460;13.528;2022-09-06T06:53:54;15.70;99.90
2124;DHT22;1068;52.460;13.528;2022-09-06T06:56:24;15.90;99.90
2124;DHT22;1068;52.460;13.528;2022-09-06T06:58:52;15.80;99.90
2124;DHT22;1068;52.460;13.528;2022-09-06T07:01:20;16.00;99.90
2124;DHT22;1068;52.460;13.528;2022-09-06T07:03:48;16.20;99.90
2124;DHT22;1068;52.460;13.528;2022-09-06T07:06:16;16.00;99.90
2124;DHT22;1068;52.460;13.528;2022-09-06T07:08:43;16.00;99.90
2124;DHT22;1068;52.460;13.528;2022-09-06T07:11:12;16.20;99.90
2124;DHT22;1068;52.460;13.528;2022-09-06T07:13:38;16.20;99.90
2124;DHT22;1068;52.460;13.528;2022-09-06T07:16:06;16.30;99.90
2124;DHT22;1068;52.460;13.528;2022-09-06T07:18:33;16.40;99.90
2124;DHT22;1068;52.460;13.528;2022-09-06T07:21:02;16.30;99.90
2124;DHT22;1068;52.460;13.528;2022-09-06T07:23:28;16.40;99.90
2124;DHT22;1068;52.460;13.528;2022-09-06T07:25:55;16.70;99.90
2124;DHT22;1068;52.460;13.528;2022-09-06T07:28:21;16.80;99.90
2124;DHT22;1068;52.460;13.528;2022-09-06T07:30:52;16.90;99.90
2124;DHT22;1068;52.460;13.528;2022-09-06T07:33:18;17.00;99.90
2124;DHT22;1068;52.460;13.528;2022-09-06T07:35:56;17.20;99.90
2124;DHT22;1068;52.460;13.528;2022-09-06T07:38:24;17.30;99.90
2124;DHT22;1068;52.460;13.528;2022-09-06T07:40:55;17.10;99.90
2124;DHT22;1068;52.460;13.528;2022-09-06T07:43:22;17.30;99.90
2124;DHT22;1068;52.460;13.528;2022-09-06T07:45:57;17.60;99.90
2124;DHT22;1068;52.460;13.528;2022-09-06T07:48:23;17.40;99.90
2124;DHT22;1068;52.460;13.528;2022-09-06T07:50:50;17.40;99.90
2124;DHT22;1068;52.460;13.528;2022-09-06T07:53:16;17.60;99.90
2124;DHT22;1068;52.460;13.528;2022-09-06T07:55:44;17.70;99.90
2124;DHT22;1068;52.460;13.528;2022-09-06T07:58:10;17.50;99.90
2124;DHT22;1068;52.460;13.528;2022-09-06T08:00:37;17.50;99.90
2124;DHT22;1068;52.460;13.528;2022-09-06T08:03:05;17.40;99.90
2124;DHT22;1068;52.460;13.528;2022-09-06T08:05:31;17.40;99.90
2124;DHT22;1068;52.460;13.528;2022-09-06T08:07:58;17.70;99.90
2124;DHT22;1068;52.460;13.528;2022-09-06T08:10:24;17.70;99.90
2124;DHT22;1068;52.460;13.528;2022-09-06T08:12:53;17.60;99.90
2124;DHT22;1068;52.460;13.528;2022-09-06T08:15:20;17.70;99.90
2124;DHT22;1068;52.460;13.528;2022-09-06T08:17:47;17.70;99.90
2124;DHT22;1068;52.460;13.528;2022-09-06T08:20:14;17.90;99.90
2124;DHT22;1068;52.460;13.528;2022-09-06T08:22:40;17.90;99.90
2124;DHT22;1068;52.460;13.528;2022-09-06T08:25:07;17.90;99.90
2124;DHT22;1068;52.460;13.528;2022-09-06T08:27:35;18.00;99.90
2124;DHT22;1068;52.460;13.528;2022-09-06T08:30:03;18.10;99.90
2124;DHT22;1068;52.460;13.528;2022-09-06T08:32:31;18.00;99.90
2124;DHT22;1068;52.460;13.528;2022-09-06T08:34:58;18.10;99.90
2124;DHT22;1068;52.460;13.528;2022-09-06T08:37:24;18.40;99.90
2124;DHT22;1068;52.460;13.528;2022-09-06T08:39:51;18.40;99.90
2124;DHT22;1068;52.460;13.528;2022-09-06T08:42:17;18.40;99.90
2124;DHT22;1068;52.460;13.528;2022-09-06T08:44:46;18.40;99.90
2124;DHT22;1068;52.460;13.528;2022-09-06T08:47:17;18.70;99.90
2124;DHT22;1068;52.460;13.528;2022-09-06T08:49:45;18.60;99.90
2124;DHT22;1068;52.460;13.528;2022-09-06T08:52:34;18.70;99.90
2124;DHT22;1068;52.460;13.528;2022-09-06T08:55:17;18.70;99.90
2124;DHT22;1068;52.460;13.528;2022-09-06T08:58:05;18.80;99.90
2124;DHT22;1068;52.460;13.528;2022-09-06T09:00:34;18.90;99.90
2124;DHT22;1068;52.460;13.528;2022-09-06T09:03:06;19.00;99.90
2124;DHT22;1068;52.460;13.528;2022-09-06T09:05:36;19.30;99.90
2124;DHT22;1068;52.460;13.528;2022-09-06T09:08:07;19.40;99.90
2124;DHT22;1068;52.460;13.528;2022-09-06T09:10:40;19.60;99.90
2124;DHT22;1068;52.460;13.528;2022-09-06T09:13:16;19.30;99.90
2124;DHT22;1068;52.460;13.528;2022-09-06T09:15:43;19.50;99.90
2124;DHT22;1068;52.460;13.528;2022-09-06T09:18:21;19.70;99.90
2124;DHT22;1068;52.460;13.528;2022-09-06T09:20:48;19.80;99.90
2124;DHT22;1068;52.460;13.528;2022-09-06T09:23:15;19.90;99.90
2124;DHT22;1068;52.460;13.528;2022-09-06T09:25:42;20.00;99.90
2124;DHT22;1068;52.460;13.528;2022-09-06T09:28:15;20.10;99.90
2124;DHT22;1068;52.460;13.528;2022-09-06T09:30:48;20.10;99.90
2124;DHT22;1068;52.460;13.528;2022-09-06T09:33:26;19.80;99.90
2124;DHT22;1068;52.460;13.528;2022-09-06T09:35:53;19.60;99.90
2124;DHT22;1068;52.460;13.528;2022-09-06T09:38:22;19.70;99.90
2124;DHT22;1068;52.460;13.528;2022-09-06T09:40:51;19.70;99.90
2124;DHT22;1068;52.460;13.528;2022-09-06T09:43:20;19.60;99.90
2124;DHT22;1068;52.460;13.528;2022-09-06T09:46:10;19.90;99.90
2124;DHT22;1068;52.460;13.528;2022-09-06T09:48:40;20.10;99.90
2124;DHT22;1068;52.460;13.528;2022-09-06T09:51:19;20.10;99.90
2124;DHT22;1068;52.460;13.528;2022-09-06T09:53:50;20.10;99.90
2124;DHT22;1068;52.460;13.528;2022-09-06T09:56:27;20.00;99.90
2124;DHT22;1068;52.460;13.528;2022-09-06T09:58:56;20.10;99.90
2124;DHT22;1068;52.460;13.528;2022-09-06T10:01:25;20.20;99.90
2124;DHT22;1068;52.460;13.528;2022-09-06T10:04:01;20.10;99.90
2124;DHT22;1068;52.460;13.528;2022-09-06T10:06:29;20.10;99.90
2124;DHT22;1068;52.460;13.528;2022-09-06T10:08:55;20.20;99.90
2124;DHT22;1068;52.460;13.528;2022-09-06T10:11:39;20.30;99.90
2124;DHT22;1068;52.460;13.528;2022-09-06T10:14:10;20.30;99.90
2124;DHT22;1068;52.460;13.528;2022-09-06T10:16:40;20.30;99.90
2124;DHT22;1068;52.460;13.528;2022-09-06T10:19:21;20.30;99.90
2124;DHT22;1068;52.460;13.528;2022-09-06T10:21:49;20.20;99.90
2124;DHT22;1068;52.460;13.528;2022-09-06T10:24:21;20.50;99.90
2124;DHT22;1068;52.460;13.528;2022-09-06T10:26:54;20.50;99.90
2124;DHT22;1068;52.460;13.528;2022-09-06T10:29:27;20.50;99.90
2124;DHT22;1068;52.460;13.528;2022-09-06T10:32:06;20.60;99.90
2124;DHT22;1068;52.460;13.528;2022-09-06T10:34:53;21.00;99.90
2124;DHT22;1068;52.460;13.528;2022-09-06T10:37:33;21.00;99.90
2124;DHT22;1068;52.460;13.528;2022-09-06T10:40:05;20.90;99.90
2124;DHT22;1068;52.460;13.528;2022-09-06T10:42:40;21.00;99.90
2124;DHT22;1068;52.460;13.528;2022-09-06T10:45:26;20.90;99.90
2124;DHT22;1068;52.460;13.528;2022-09-06T10:47:56;20.90;99.90
2124;DHT22;1068;52.460;13.528;2022-09-06T10:50:32;21.10;99.90
2124;DHT22;1068;52.460;13.528;2022-09-06T10:53:06;20.90;99.90
2124;DHT22;1068;52.460;13.528;2022-09-06T10:55:37;21.00;99.90
2124;DHT22;1068;52.460;13.528;2022-09-06T10:58:05;21.00;99.90
2124;DHT22;1068;52.460;13.528;2022-09-06T11:00:39;21.20;99.90
2124;DHT22;1068;52.460;13.528;2022-09-06T11:03:12;21.10;99.90
2124;DHT22;1068;52.460;13.528;2022-09-06T11:05:45;21.00;99.90
2124;DHT22;1068;52.460;13.528;2022-09-06T11:08:19;21.10;99.90
2124;DHT22;1068;52.460;13.528;2022-09-06T11:10:48;21.00;99.90
2124;DHT22;1068;52.460;13.528;2022-09-06T11:13:17;21.30;99.90
2124;DHT22;1068;52.460;13.528;2022-09-06T11:15:46;21.50;99.90
2124;DHT22;1068;52.460;13.528;2022-09-06T11:18:17;21.60;99.90
2124;DHT22;1068;52.460;13.528;2022-09-06T11:20:52;21.50;99.90
2124;DHT22;1068;52.460;13.528;2022-09-06T11:23:41;21.40;99.90
2124;DHT22;1068;52.460;13.528;2022-09-06T11:26:28;21.40;99.90
2124;DHT22;1068;52.460;13.528;2022-09-06T11:28:57;21.60;99.90
2124;DHT22;1068;52.460;13.528;2022-09-06T11:31:26;21.60;99.90
2124;DHT22;1068;52.460;13.528;2022-09-06T11:34:08;21.60;99.90
2124;DHT22;1068;52.460;13.528;2022-09-06T11:36:38;21.50;99.90
2124;DHT22;1068;52.460;13.528;2022-09-06T11:39:07;21.80;99.90
2124;DHT22;1068;52.460;13.528;2022-09-06T11:41:36;21.70;99.90
2124;DHT22;1068;52.460;13.528;2022-09-06T11:44:04;21.70;99.90
2124;DHT22;1068;52.460;13.528;2022-09-06T11:46:56;21.90;99.90
2124;DHT22;1068;52.460;13.528;2022-09-06T11:49:35;21.70;99.90
2124;DHT22;1068;52.460;13.528;2022-09-06T11:55:09;21.80;99.90
2124;DHT22;1068;52.460;13.528;2022-09-06T11:57:37;22.10;99.90
2124;DHT22;1068;52.460;13.528;2022-09-06T12:00:06;22.10;99.90
2124;DHT22;1068;52.460;13.528;2022-09-06T12:02:38;21.90;99.90
2124;DHT22;1068;52.460;13.528;2022-09-06T12:05:17;21.60;99.90
2124;DHT22;1068;52.460;13.528;2022-09-06T12:13:54;21.50;99.90
2124;DHT22;1068;52.460;13.528;2022-09-06T12:16:22;21.30;99.90
2124;DHT22;1068;52.460;13.528;2022-09-06T12:18:59;21.50;99.90
2124;DHT22;1068;52.460;13.528;2022-09-06T12:21:44;21.60;99.90
2124;DHT22;1068;52.460;13.528;2022-09-06T12:24:50;21.70;99.90
2124;DHT22;1068;52.460;13.528;2022-09-06T12:27:19;21.60;99.90
2124;DHT22;1068;52.460;13.528;2022-09-06T12:29:49;21.50;99.90
2124;DHT22;1068;52.460;13.528;2022-09-06T12:32:21;21.50;99.90
2124;DHT22;1068;52.460;13.528;2022-09-06T12:34:50;21.50;99.90
2124;DHT22;1068;52.460;13.528;2022-09-06T12:37:30;21.50;99.90
2124;DHT22;1068;52.460;13.528;2022-09-06T12:39:58;21.60;99.90
2124;DHT22;1068;52.460;13.528;2022-09-06T12:42:26;21.60;99.90
2124;DHT22;1068;52.460;13.528;2022-09-06T12:44:53;21.70;99.90
2124;DHT22;1068;52.460;13.528;2022-09-06T12:47:23;21.80;99.90
2124;DHT22;1068;52.460;13.528;2022-09-06T12:50:14;21.90;99.90
2124;DHT22;1068;52.460;13.528;2022-09-06T12:52:50;22.20;99.90
2124;DHT22;1068;52.460;13.528;2022-09-06T12:55:22;22.20;99.90
2124;DHT22;1068;52.460;13.528;2022-09-06T12:57:52;22.00;99.90
2124;DHT22;1068;52.460;13.528;2022-09-06T13:00:20;21.90;99.90
2124;DHT22;1068;52.460;13.528;2022-09-06T13:02:55;22.00;99.90
2124;DHT22;1068;52.460;13.528;2022-09-06T13:05:23;22.00;99.90
2124;DHT22;1068;52.460;13.528;2022-09-06T13:07:53;22.20;99.90
2124;DHT22;1068;52.460;13.528;2022-09-06T13:10:22;22.40;99.90
2124;DHT22;1068;52.460;13.528;2022-09-06T13:12:52;22.30;99.90
2124;DHT22;1068;52.460;13.528;2022-09-06T13:15:22;22.20;99.90
2124;DHT22;1068;52.460;13.528;2022-09-06T13:17:51;22.30;99.90
2124;DHT22;1068;52.460;13.528;2022-09-06T13:20:23;22.30;99.90
2124;DHT22;1068;52.460;13.528;2022-09-06T13:22:51;22.30;99.90
2124;DHT22;1068;52.460;13.528;2022-09-06T13:25:23;22.30;99.90
2124;DHT22;1068;52.460;13.528;2022-09-06T13:27:52;22.00;99.90
2124;DHT22;1068;52.460;13.528;2022-09-06T13:30:33;22.10;99.90
2124;DHT22;1068;52.460;13.528;2022-09-06T13:33:01;22.40;99.90
2124;DHT22;1068;52.460;13.528;2022-09-06T13:35:29;22.60;99.90
2124;DHT22;1068;52.460;13.528;2022-09-06T13:38:18;22.60;99.90
2124;DHT22;1068;52.460;13.528;2022-09-06T13:40:45;22.50;99.90
2124;DHT22;1068;52.460;13.528;2022-09-06T13:43:13;22.30;99.90
2124;DHT22;1068;52.460;13.528;2022-09-06T13:45:40;22.10;99.90
2124;DHT22;1068;52.460;13.528;2022-09-06T13:48:06;22.00;99.90
2124;DHT22;1068;52.460;13.528;2022-09-06T13:50:33;22.00;99.90
2124;DHT22;1068;52.460;13.528;2022-09-06T13:53:00;22.00;99.90
2124;DHT22;1068;52.460;13.528;2022-09-06T13:55:30;22.20;99.90
2124;DHT22;1068;52.460;13.528;2022-09-06T13:57:57;22.30;99.90
2124;DHT22;1068;52.460;13.528;2022-09-06T14:00:25;22.30;99.90
2124;DHT22;1068;52.460;13.528;2022-09-06T14:02:52;22.20;99.90
2124;DHT22;1068;52.460;13.528;2022-09-06T14:05:19;21.90;99.90
2124;DHT22;1068;52.460;13.528;2022-09-06T14:07:46;22.00;99.90
2124;DHT22;1068;52.460;13.528;2022-09-06T14:10:13;22.10;99.90
2124;DHT22;1068;52.460;13.528;2022-09-06T14:12:39;22.20;99.90
2124;DHT22;1068;52.460;13.528;2022-09-06T14:15:06;22.00;99.90
2124;DHT22;1068;52.460;13.528;2022-09-06T14:17:35;22.30;99.90
2124;DHT22;1068;52.460;13.528;2022-09-06T14:20:02;22.30;99.90
2124;DHT22;1068;52.460;13.528;2022-09-06T14:22:28;22.20;99.90
2124;DHT22;1068;52.460;13.528;2022-09-06T14:24:55;22.20;99.90
2124;DHT22;1068;52.460;13.528;2022-09-06T14:27:21;22.10;99.90
2124;DHT22;1068;52.460;13.528;2022-09-06T14:29:48;22.10;99.90
2124;DHT22;1068;52.460;13.528;2022-09-06T14:32:14;22.30;99.90
2124;DHT22;1068;52.460;13.528;2022-09-06T14:34:43;22.20;99.90
2124;DHT22;1068;52.460;13.528;2022-09-06T14:37:10;22.00;99.90
2124;DHT22;1068;52.460;13.528;2022-09-06T14:39:36;22.00;99.90
2124;DHT22;1068;52.460;13.528;2022-09-06T14:42:03;22.00;99.90
2124;DHT22;1068;52.460;13.528;2022-09-06T14:44:30;22.10;99.90
2124;DHT22;1068;52.460;13.528;2022-09-06T14:46:56;22.20;99.90
2124;DHT22;1068;52.460;13.528;2022-09-06T14:49:24;22.20;99.90
2124;DHT22;1068;52.460;13.528;2022-09-06T14:51:52;22.20;99.90
2124;DHT22;1068;52.460;13.528;2022-09-06T14:54:19;22.20;99.90
2124;DHT22;1068;52.460;13.528;2022-09-06T14:56:46;22.30;99.90
2124;DHT22;1068;52.460;13.528;2022-09-06T14:59:13;22.40;99.90
2124;DHT22;1068;52.460;13.528;2022-09-06T15:01:40;22.60;99.90
2124;DHT22;1068;52.460;13.528;2022-09-06T15:04:08;22.60;99.90
2124;DHT22;1068;52.460;13.528;2022-09-06T15:06:36;22.60;99.90
2124;DHT22;1068;52.460;13.528;2022-09-06T15:09:06;22.60;99.90
2124;DHT22;1068;52.460;13.528;2022-09-06T15:11:36;22.90;99.90
2124;DHT22;1068;52.460;13.528;2022-09-06T15:14:06;23.10;99.90
2124;DHT22;1068;52.460;13.528;2022-09-06T15:16:33;22.80;99.90
2124;DHT22;1068;52.460;13.528;2022-09-06T15:19:00;22.80;99.90
2124;DHT22;1068;52.460;13.528;2022-09-06T15:21:27;22.90;99.90
2124;DHT22;1068;52.460;13.528;2022-09-06T15:23:54;22.60;99.90
2124;DHT22;1068;52.460;13.528;2022-09-06T15:26:22;22.70;99.90
2124;DHT22;1068;52.460;13.528;2022-09-06T15:28:49;22.70;99.90
2124;DHT22;1068;52.460;13.528;2022-09-06T15:31:16;23.00;99.90
2124;DHT22;1068;52.460;13.528;2022-09-06T15:33:44;23.10;99.90
2124;DHT22;1068;52.460;13.528;2022-09-06T15:36:13;22.90;99.90
2124;DHT22;1068;52.460;13.528;2022-09-06T15:38:42;22.80;99.90
2124;DHT22;1068;52.460;13.528;2022-09-06T15:41:11;22.90;99.90
2124;DHT22;1068;52.460;13.528;2022-09-06T15:43:41;22.60;99.90
2124;DHT22;1068;52.460;13.528;2022-09-06T15:46:11;22.70;99.90
2124;DHT22;1068;52.460;13.528;2022-09-06T15:48:40;22.70;99.90
2124;DHT22;1068;52.460;13.528;2022-09-06T15:51:07;22.60;99.90
2124;DHT22;1068;52.460;13.528;2022-09-06T15:53:34;22.70;99.90
2124;DHT22;1068;52.460;13.528;2022-09-06T15:56:00;22.60;99.90
2124;DHT22;1068;52.460;13.528;2022-09-06T15:58:27;22.70;99.90
2124;DHT22;1068;52.460;13.528;2022-09-06T16:01:04;22.80;99.90
2124;DHT22;1068;52.460;13.528;2022-09-06T16:03:31;22.80;99.90
2124;DHT22;1068;52.460;13.528;2022-09-06T16:06:02;22.80;99.90
2124;DHT22;1068;52.460;13.528;2022-09-06T16:08:30;22.90;99.90
2124;DHT22;1068;52.460;13.528;2022-09-06T16:10:57;22.80;99.90